createdAt,value
2017-05-15T00:00:33.000Z,21.6
2017-05-15T00:17:21.000Z,21.6
2017-05-15T00:34:10.000Z,21.6
2017-05-15T00:50:59.000Z,21.6
2017-05-15T01:07:47.000Z,21.6
2017-05-15T01:24:36.000Z,21.3
2017-05-15T01:41:24.000Z,21.3
2017-05-15T01:58:13.000Z,21.3
2017-05-15T02:15:01.000Z,21.3
2017-05-15T02:31:49.000Z,21.3
2017-05-15T02:48:37.000Z,21.3
2017-05-15T03:05:25.000Z,21.3
2017-05-15T03:22:14.000Z,21
2017-05-15T03:39:02.000Z,21
2017-05-15T03:55:49.000Z,21
2017-05-15T04:12:37.000Z,21
2017-05-15T04:29:26.000Z,21
2017-05-15T04:46:14.000Z,21
2017-05-15T05:03:02.000Z,21.3
2017-05-15T05:14:48.000Z,21.9
2017-05-15T05:29:56.000Z,22.6
2017-05-15T05:46:47.000Z,22.9
2017-05-15T06:03:36.000Z,23.2
2017-05-15T06:20:26.000Z,23.2
2017-05-15T06:37:17.000Z,23.2
2017-05-15T06:54:08.000Z,23.2
2017-05-15T07:10:59.000Z,23.2
2017-05-15T07:27:49.000Z,23.2
2017-05-15T07:44:40.000Z,23.2
2017-05-15T08:01:30.000Z,23.2
2017-05-15T08:18:22.000Z,23.5
2017-05-15T08:35:12.000Z,23.5
2017-05-15T08:52:04.000Z,23.5
2017-05-15T09:08:55.000Z,23.5
2017-05-15T09:25:46.000Z,23.5
2017-05-15T09:42:37.000Z,23.8
2017-05-15T09:59:28.000Z,23.8
2017-05-15T10:16:19.000Z,23.8
2017-05-15T10:33:11.000Z,23.8
2017-05-15T10:50:03.000Z,24.2
2017-05-15T11:06:54.000Z,24.2
2017-05-15T11:23:46.000Z,24.2
2017-05-15T11:40:39.000Z,24.2
2017-05-15T11:57:30.000Z,24.2
2017-05-15T12:14:22.000Z,24.5
2017-05-15T12:31:14.000Z,24.5
2017-05-15T12:48:07.000Z,24.5
2017-05-15T13:04:59.000Z,24.5
2017-05-15T13:21:50.000Z,24.5
2017-05-15T13:28:36.000Z,24.5
2017-05-15T13:31:58.000Z,24.2
2017-05-15T13:48:50.000Z,24.2
2017-05-15T14:00:38.000Z,23.8
2017-05-15T14:04:01.000Z,23.8
2017-05-15T14:07:22.000Z,23.5
2017-05-15T14:14:07.000Z,23.8
2017-05-15T14:30:58.000Z,23.5
2017-05-15T14:47:49.000Z,23.5
2017-05-15T14:54:34.000Z,23.8
2017-05-15T15:11:25.000Z,23.8
2017-05-15T15:21:33.000Z,23.8
2017-05-15T15:38:24.000Z,23.8
2017-05-15T15:46:49.000Z,23.5
2017-05-15T15:50:11.000Z,23.5
2017-05-15T16:00:18.000Z,23.8
2017-05-15T16:10:25.000Z,23.8
2017-05-15T16:25:35.000Z,23.8
2017-05-15T16:42:27.000Z,23.8
2017-05-15T16:59:19.000Z,23.8
2017-05-15T17:16:10.000Z,23.8
2017-05-15T17:33:01.000Z,23.8
2017-05-15T17:49:53.000Z,23.5
2017-05-15T18:06:45.000Z,23.5
2017-05-15T18:18:32.000Z,23.5
2017-05-15T18:21:55.000Z,23.2
2017-05-15T18:33:42.000Z,22.9
2017-05-15T18:50:32.000Z,22.6
2017-05-15T19:07:22.000Z,22.2
2017-05-15T19:24:13.000Z,22.2
2017-05-15T19:41:02.000Z,22.2
2017-05-15T19:57:53.000Z,22.2
2017-05-15T20:14:43.000Z,22.2
2017-05-15T20:31:32.000Z,21.9
2017-05-15T20:48:22.000Z,21.9
2017-05-15T21:05:12.000Z,21.9
2017-05-15T21:20:20.000Z,21.9
2017-05-15T21:37:09.000Z,22.2
2017-05-15T21:53:58.000Z,22.2
2017-05-15T22:10:49.000Z,22.2
2017-05-15T22:27:38.000Z,22.2
2017-05-15T22:44:26.000Z,22.2
2017-05-15T23:01:15.000Z,22.2
2017-05-15T23:18:05.000Z,22.2
2017-05-15T23:34:54.000Z,21.9
2017-05-15T23:51:43.000Z,21.9
